Time;durP1;ratioP1;P1;durP2;ratioP2;P2;SDS_P1;SDS_P2;PMS_P1;PMS_P2;Temp;Humidity;BMP_temperature;BMP_pressure;BME280_temperature;BME280_humidity;BME280_pressure;Samples;Min_cycle;Max_cycle;Signal;HPM_P1;HPM_P2
2023/04/16 00:02:31;;;;;;;;;;;;;;;26.56;40.27;94176.53;4973120;28;8767;-55
2023/04/16 00:05:16;;;;;;;;;;;;;;;26.64;40.38;94184.97;4986145;28;7346;-55
2023/04/16 00:07:52;;;;;;;;;;;;;;;26.63;40.58;94180.72;4992074;28;7199;-55
2023/04/16 00:10:34;;;;;;;;;;;;;;;26.60;40.99;94173.50;5002596;28;9072;-55
2023/04/16 00:13:13;;;;;;;;;;;;;;;26.58;40.59;94176.00;4999782;28;9075;-55
2023/04/16 00:15:41;;;;;;;;;;;;;;;26.55;40.76;94180.59;5012497;28;7032;-55
2023/04/16 00:18:07;;;;;;;;;;;;;;;26.56;40.28;94184.81;4995589;28;7112;-55
2023/04/16 00:20:49;;;;;;;;;;;;;;;26.57;40.56;94174.53;4990720;28;7656;-56
2023/04/16 00:23:26;;;;;;;;;;;;;;;26.55;40.99;94177.84;4969871;28;7232;-55
2023/04/16 00:26:20;;;;;;;;;;;;;;;26.54;40.97;94175.56;4971400;28;7214;-55
2023/04/16 00:28:57;;;;;;;;;;;;;;;26.53;40.72;94177.59;4962463;28;7244;-55
2023/04/16 00:31:32;;;;;;;;;;;;;;;26.56;40.72;94178.56;4964820;28;7258;-55
2023/04/16 00:33:59;;;;;;;;;;;;;;;26.53;40.64;94171.34;4949973;28;8696;-55
2023/04/16 00:36:27;;;;;;;;;;;;;;;26.50;41.02;94175.88;5017251;28;8842;-55
2023/04/16 00:39:03;;;;;;;;;;;;;;;26.52;40.54;94178.88;5027229;28;7142;-55
2023/04/16 00:41:29;;;;;;;;;;;;;;;26.51;40.81;94176.63;5040967;28;7415;-55
2023/04/16 00:44:05;;;;;;;;;;;;;;;26.48;40.47;94178.41;5026722;28;9030;-55
2023/04/16 00:46:33;;;;;;;;;;;;;;;26.48;40.77;94178.41;5018455;28;9206;-55
2023/04/16 00:49:03;;;;;;;;;;;;;;;26.46;40.71;94171.94;5015280;28;9030;-55
2023/04/16 00:51:40;;;;;;;;;;;;;;;26.42;40.89;94177.00;5025324;28;7337;-55
2023/04/16 00:54:19;;;;;;;;;;;;;;;26.43;40.55;94176.47;5043433;28;7384;-55
2023/04/16 00:56:45;;;;;;;;;;;;;;;26.43;40.64;94172.97;5020168;28;8986;-55
2023/04/16 00:59:12;;;;;;;;;;;;;;;26.42;40.50;94179.75;5009782;28;7291;-55
2023/04/16 01:01:49;;;;;;;;;;;;;;;26.40;41.05;94176.78;5019041;28;7304;-55
2023/04/16 01:04:18;;;;;;;;;;;;;;;26.40;41.09;94177.53;5030326;28;7304;-55
2023/04/16 01:06:51;;;;;;;;;;;;;;;26.40;41.22;94176.78;5103293;28;7490;-55
2023/04/16 01:09:23;;;;;;;;;;;;;;;26.39;40.78;94170.50;5092275;28;9033;-55
2023/04/16 01:11:50;;;;;;;;;;;;;;;26.40;41.08;94177.53;5094108;28;9042;-55
2023/04/16 01:14:17;;;;;;;;;;;;;;;26.40;40.57;94165.75;5094326;28;7399;-55
2023/04/16 01:16:43;;;;;;;;;;;;;;;26.40;41.35;94172.00;5095882;28;7473;-55
2023/04/16 01:19:11;;;;;;;;;;;;;;;26.43;40.46;94181.22;5094889;28;7447;-55
2023/04/16 01:21:39;;;;;;;;;;;;;;;26.39;40.88;94173.28;5093805;28;6988;-55
2023/04/16 01:24:05;;;;;;;;;;;;;;;26.39;40.76;94175.28;5097075;28;7283;-55
2023/04/16 01:26:34;;;;;;;;;;;;;;;26.39;40.86;94172.50;5079753;28;9468;-55
2023/04/16 01:29:01;;;;;;;;;;;;;;;26.39;40.91;94175.28;5090733;28;7347;-55
2023/04/16 01:31:32;;;;;;;;;;;;;;;26.37;40.74;94172.28;5085371;28;8722;-55
2023/04/16 01:34:02;;;;;;;;;;;;;;;26.37;40.82;94180.56;5071869;28;8712;-55
2023/04/16 01:36:28;;;;;;;;;;;;;;;26.36;40.90;94179.09;5077538;28;7273;-55
2023/04/16 01:38:56;;;;;;;;;;;;;;;26.36;41.53;94187.38;5094668;28;7579;-55
2023/04/16 01:41:22;;;;;;;;;;;;;;;26.33;40.96;94180.88;5066559;28;7451;-55
2023/04/16 01:43:52;;;;;;;;;;;;;;;26.34;40.48;94181.63;5089582;28;7252;-55
2023/04/16 01:46:26;;;;;;;;;;;;;;;26.37;41.29;94189.59;5088351;28;7492;-55
2023/04/16 01:48:53;;;;;;;;;;;;;;;26.35;41.25;94183.84;5061483;28;7431;-55
2023/04/16 01:51:23;;;;;;;;;;;;;;;26.34;40.81;94184.38;5096426;28;7288;-55
2023/04/16 01:53:50;;;;;;;;;;;;;;;26.35;40.61;94185.84;5092672;28;9512;-55
2023/04/16 01:56:16;;;;;;;;;;;;;;;26.33;41.37;94188.41;5070844;28;7022;-55
2023/04/16 01:59:20;;;;;;;;;;;;;;;26.35;40.87;94197.66;5104462;28;9336;-55
2023/04/16 02:02:09;;;;;;;;;;;;;;;26.36;40.76;94190.84;5023682;28;7239;-55
2023/04/16 02:04:47;;;;;;;;;;;;;;;26.34;41.38;94192.66;5043990;28;7255;-55
2023/04/16 02:07:30;;;;;;;;;;;;;;;26.32;40.79;94193.16;5023342;28;9191;-55
2023/04/16 02:09:58;;;;;;;;;;;;;;;26.32;41.33;94193.16;5026558;28;7148;-55
2023/04/16 02:12:53;;;;;;;;;;;;;;;26.33;40.90;94188.41;5044473;28;7445;-55
2023/04/16 02:15:32;;;;;;;;;;;;;;;26.28;41.09;94187.19;4991938;28;9055;-55
2023/04/16 02:18:05;;;;;;;;;;;;;;;26.32;40.81;94192.44;4992660;28;7130;-55
2023/04/16 02:21:16;;;;;;;;;;;;;;;26.30;41.31;94198.44;5003604;28;8857;-55
2023/04/16 02:23:53;;;;;;;;;;;;;;;26.29;40.95;94194.22;5010728;28;7495;-55
2023/04/16 02:26:31;;;;;;;;;;;;;;;26.29;41.24;94194.22;5020923;28;9011;-55
2023/04/16 02:29:28;;;;;;;;;;;;;;;26.30;40.97;94197.69;4982986;28;7208;-55
2023/04/16 02:31:56;;;;;;;;;;;;;;;26.29;41.50;94202.47;4992542;28;8298;-55
2023/04/16 02:34:22;;;;;;;;;;;;;;;26.27;41.23;94198.75;4993488;28;9147;-55
2023/04/16 02:37:19;;;;;;;;;;;;;;;26.28;41.01;94194.72;5018392;28;7212;-55
2023/04/16 02:39:48;;;;;;;;;;;;;;;26.27;41.52;94196.00;5020539;28;8889;-55
2023/04/16 02:42:32;;;;;;;;;;;;;;;26.24;41.55;94189.50;5027979;28;9035;-55
2023/04/16 02:44:59;;;;;;;;;;;;;;;26.25;41.24;94196.53;5014231;28;6860;-55
2023/04/16 02:47:27;;;;;;;;;;;;;;;26.25;41.53;94198.53;5042058;28;7032;-55
2023/04/16 02:49:54;;;;;;;;;;;;;;;26.27;41.52;94198.75;5027412;28;7445;-55
2023/04/16 02:52:31;;;;;;;;;;;;;;;26.27;41.35;94201.50;5058750;28;7343;-55
2023/04/16 02:54:57;;;;;;;;;;;;;;;26.25;41.39;94193.75;5079574;28;9048;-55
2023/04/16 02:57:42;;;;;;;;;;;;;;;26.25;40.79;94193.75;5099885;28;7222;-55
2023/04/16 03:00:09;;;;;;;;;;;;;;;26.24;41.42;94197.03;5075533;28;8949;-55
2023/04/16 03:03:00;;;;;;;;;;;;;;;26.24;41.26;94197.03;5070512;28;7040;-55
2023/04/16 03:05:32;;;;;;;;;;;;;;;26.24;41.06;94197.03;5062559;28;7038;-55
2023/04/16 03:08:01;;;;;;;;;;;;;;;26.23;40.77;94201.78;5107618;28;7014;-55
2023/04/16 03:10:46;;;;;;;;;;;;;;;26.25;40.93;94193.00;5091459;28;7255;-55
2023/04/16 03:13:19;;;;;;;;;;;;;;;26.24;41.42;94199.78;5082819;28;9078;-55
2023/04/16 03:15:48;;;;;;;;;;;;;;;26.25;41.23;94190.25;5074312;28;7286;-55
2023/04/16 03:18:15;;;;;;;;;;;;;;;26.25;41.58;94204.03;5068896;28;8587;-55
2023/04/16 03:20:41;;;;;;;;;;;;;;;26.24;40.90;94194.25;5058993;28;8788;-55
2023/04/16 03:23:06;;;;;;;;;;;;;;;26.23;40.80;94195.53;5075242;28;9297;-55
2023/04/16 03:25:35;;;;;;;;;;;;;;;26.22;41.15;94196.81;5042982;28;9020;-55
2023/04/16 03:28:02;;;;;;;;;;;;;;;26.23;41.62;94203.81;5062335;28;7267;-55
2023/04/16 03:30:28;;;;;;;;;;;;;;;26.20;40.80;94191.06;5060649;28;8779;-55
2023/04/16 03:32:57;;;;;;;;;;;;;;;26.20;41.71;94202.09;5062303;28;9086;-55
2023/04/16 03:36:02;;;;;;;;;;;;;;;26.22;41.38;94205.06;5069616;28;7307;-55
2023/04/16 03:38:42;;;;;;;;;;;;;;;26.20;41.18;94202.84;5086490;28;8929;-55
2023/04/16 03:41:17;;;;;;;;;;;;;;;26.17;40.92;94199.09;5065752;28;7150;-55
2023/04/16 03:44:19;;;;;;;;;;;;;;;26.22;41.51;94207.81;5082787;28;7444;-55
2023/04/16 03:46:46;;;;;;;;;;;;;;;26.20;40.97;94208.34;5073433;28;9367;-55
2023/04/16 03:49:21;;;;;;;;;;;;;;;26.21;41.56;94220.13;5084479;28;7203;-55
2023/04/16 03:52:16;;;;;;;;;;;;;;;26.21;41.49;94203.59;5075070;28;9003;-55
2023/04/16 03:55:14;;;;;;;;;;;;;;;26.22;41.58;94213.34;5031377;28;7046;-55
2023/04/16 03:57:41;;;;;;;;;;;;;;;26.20;40.78;94213.88;4932728;28;9027;-55
2023/04/16 04:00:16;;;;;;;;;;;;;;;26.21;40.94;94211.88;4945246;28;7311;-55
2023/04/16 04:02:42;;;;;;;;;;;;;;;26.19;41.56;94212.38;4948963;28;8869;-55
2023/04/16 04:05:10;;;;;;;;;;;;;;;26.22;40.79;94213.34;4957805;28;9008;-55
2023/04/16 04:07:36;;;;;;;;;;;;;;;26.21;41.00;94220.13;4932091;28;8963;-55
2023/04/16 04:10:02;;;;;;;;;;;;;;;26.22;40.91;94210.59;4944823;28;8532;-55
2023/04/16 04:12:28;;;;;;;;;;;;;;;26.21;40.82;94209.09;4946487;28;7117;-55
2023/04/16 04:14:56;;;;;;;;;;;;;;;26.21;41.01;94214.63;4944129;28;7104;-55
2023/04/16 04:17:22;;;;;;;;;;;;;;;26.21;40.98;94220.13;4941020;28;7370;-55
2023/04/16 04:19:52;;;;;;;;;;;;;;;26.16;41.27;94208.63;4956505;28;8681;-55
2023/04/16 04:22:21;;;;;;;;;;;;;;;26.21;40.93;94211.88;4947961;28;6995;-55
2023/04/16 04:24:57;;;;;;;;;;;;;;;26.22;41.23;94211.34;4949402;28;7273;-55
2023/04/16 04:27:29;;;;;;;;;;;;;;;26.25;40.82;94217.81;4953365;28;7065;-55
2023/04/16 04:30:07;;;;;;;;;;;;;;;26.25;40.86;94210.31;4941562;29;7542;-55
2023/04/16 04:32:35;;;;;;;;;;;;;;;26.23;41.10;94214.84;5005616;28;7040;-55
2023/04/16 04:35:19;;;;;;;;;;;;;;;26.22;41.26;94227.88;5052958;28;7026;-55
2023/04/16 04:38:00;;;;;;;;;;;;;;;26.20;40.84;94224.91;5073643;28;9042;-55
2023/04/16 04:40:26;;;;;;;;;;;;;;;26.20;41.30;94224.16;5093739;28;9141;-55
2023/04/16 04:42:52;;;;;;;;;;;;;;;26.22;41.15;94227.13;5091160;28;9270;-55
2023/04/16 04:45:20;;;;;;;;;;;;;;;26.21;41.37;94220.13;5070365;28;7108;-55
2023/04/16 04:47:48;;;;;;;;;;;;;;;26.17;41.70;94223.91;5097848;28;9159;-55
2023/04/16 04:50:18;;;;;;;;;;;;;;;26.18;41.54;94230.19;5083068;28;7385;-55
2023/04/16 04:52:44;;;;;;;;;;;;;;;26.15;41.53;94222.94;5075633;28;7017;-55
2023/04/16 04:55:14;;;;;;;;;;;;;;;26.16;41.60;94229.97;5077715;28;9064;-55
2023/04/16 04:57:48;;;;;;;;;;;;;;;26.16;41.21;94236.19;5076497;28;8911;-55
2023/04/16 05:00:15;;;;;;;;;;;;;;;26.16;41.44;94232.72;5112909;28;7136;-55
2023/04/16 05:03:01;;;;;;;;;;;;;;;26.15;41.67;94239.47;5077133;28;7366;-55
2023/04/16 05:05:30;;;;;;;;;;;;;;;26.13;40.92;94231.72;5091817;28;7261;-55
2023/04/16 05:07:56;;;;;;;;;;;;;;;26.12;41.67;94241.25;5077192;28;7366;-55
2023/04/16 05:10:22;;;;;;;;;;;;;;;26.14;40.93;94244.25;5077360;28;7218;-55
2023/04/16 05:12:57;;;;;;;;;;;;;;;26.10;41.23;94234.75;5071102;28;7068;-54
2023/04/16 05:15:25;;;;;;;;;;;;;;;26.08;41.67;94232.53;5097553;28;9098;-55
2023/04/16 05:18:03;;;;;;;;;;;;;;;26.19;41.51;94244.72;5074670;28;7099;-55
2023/04/16 05:24:12;;;;;;;;;;;;;;;26.15;41.15;94251.25;5092571;28;9062;-55
2023/04/16 05:26:48;;;;;;;;;;;;;;;26.16;41.40;94254.78;5071024;28;7044;-55
2023/04/16 05:29:29;;;;;;;;;;;;;;;26.16;41.86;94261.00;5089266;28;9428;-55
2023/04/16 05:32:42;;;;;;;;;;;;;;;26.17;41.77;94265.25;5104078;28;7327;-55
2023/04/16 05:35:20;;;;;;;;;;;;;;;26.14;41.11;94255.25;5099481;28;9148;-55
2023/04/16 05:37:56;;;;;;;;;;;;;;;26.14;41.80;94260.78;5078357;28;9045;-55
2023/04/16 05:40:22;;;;;;;;;;;;;;;26.11;41.21;94256.31;5083110;28;7410;-55
2023/04/16 05:43:01;;;;;;;;;;;;;;;26.13;40.94;94264.81;5089461;28;9011;-55
2023/04/16 05:45:42;;;;;;;;;;;;;;;26.13;41.34;94264.81;5079849;28;9324;-55
2023/04/16 05:48:15;;;;;;;;;;;;;;;26.12;41.30;94263.31;5083649;28;7186;-55
2023/04/16 05:50:43;;;;;;;;;;;;;;;26.12;41.08;94268.09;5087525;28;7331;-55
2023/04/16 05:53:19;;;;;;;;;;;;;;;26.12;40.86;94274.34;5101694;28;7215;-55
2023/04/16 05:55:51;;;;;;;;;;;;;;;26.12;41.82;94274.34;5092629;28;9079;-55
2023/04/16 05:58:27;;;;;;;;;;;;;;;26.12;41.34;94268.09;5089544;28;9072;-56
2023/04/16 06:01:31;;;;;;;;;;;;;;;26.12;41.03;94266.06;5085831;28;8939;-55
2023/04/16 06:04:08;;;;;;;;;;;;;;;26.10;40.98;94271.34;5030158;28;7132;-55
2023/04/16 06:06:36;;;;;;;;;;;;;;;26.12;41.37;94279.13;5021631;28;7079;-55
2023/04/16 06:09:03;;;;;;;;;;;;;;;26.11;40.97;94283.88;5022625;28;9129;-55
2023/04/16 06:11:36;;;;;;;;;;;;;;;26.13;41.15;94280.59;5031039;28;9627;-55
2023/04/16 06:14:22;;;;;;;;;;;;;;;26.14;41.48;94276.59;5011202;28;9013;-55
2023/04/16 06:17:04;;;;;;;;;;;;;;;26.15;41.27;94284.34;5022367;28;7272;-55
2023/04/16 06:19:47;;;;;;;;;;;;;;;26.15;41.31;94281.56;5026168;28;7482;-55
2023/04/16 06:22:15;;;;;;;;;;;;;;;26.14;41.38;94282.81;5012052;28;7037;-55
2023/04/16 06:24:56;;;;;;;;;;;;;;;26.12;41.80;94279.84;5029188;28;7313;-55
2023/04/16 06:27:31;;;;;;;;;;;;;;;26.12;41.21;94290.16;5008227;28;7127;-55
2023/04/16 06:30:18;;;;;;;;;;;;;;;26.14;41.29;94296.63;5022169;28;7217;-55
2023/04/16 06:33:04;;;;;;;;;;;;;;;26.16;41.43;94294.09;5013125;28;7272;-55
2023/04/16 06:35:31;;;;;;;;;;;;;;;26.13;41.40;94291.63;5008172;28;7262;-55
2023/04/16 06:38:09;;;;;;;;;;;;;;;26.14;41.35;94296.63;5046100;28;7065;-55
2023/04/16 06:40:38;;;;;;;;;;;;;;;26.12;42.05;94299.13;5096334;28;9393;-55
2023/04/16 06:43:14;;;;;;;;;;;;;;;26.12;41.69;94301.91;5089652;28;9035;-55
2023/04/16 06:45:41;;;;;;;;;;;;;;;26.11;42.20;94303.19;5088237;28;7010;-55
2023/04/16 06:48:07;;;;;;;;;;;;;;;26.14;41.64;94304.88;5066546;28;7041;-55
2023/04/16 06:50:34;;;;;;;;;;;;;;;26.12;42.28;94306.69;5074478;28;7391;-55
2023/04/16 06:53:01;;;;;;;;;;;;;;;26.09;41.70;94305.72;5053729;28;7835;-55
2023/04/16 06:55:35;;;;;;;;;;;;;;;26.11;42.42;94322.47;5071625;28;9117;-55
2023/04/16 06:58:01;;;;;;;;;;;;;;;26.10;41.81;94315.44;5065214;28;7010;-55
2023/04/16 07:00:28;;;;;;;;;;;;;;;26.13;41.65;94319.94;5065424;28;8277;-55
2023/04/16 07:02:54;;;;;;;;;;;;;;;26.21;41.82;94319.38;5080745;28;7228;-55
2023/04/16 07:05:22;;;;;;;;;;;;;;;26.28;41.32;94316.03;5074530;28;7366;-55
2023/04/16 07:07:47;;;;;;;;;;;;;;;26.31;41.78;94315.00;5072004;28;7060;-55
2023/04/16 07:10:16;;;;;;;;;;;;;;;26.28;42.14;94324.31;5090975;28;9106;-55
2023/04/16 07:12:53;;;;;;;;;;;;;;;26.25;41.92;94325.34;5073647;28;7498;-55
2023/04/16 07:15:29;;;;;;;;;;;;;;;26.24;41.74;94323.84;5075237;28;9354;-55
2023/04/16 07:17:55;;;;;;;;;;;;;;;26.23;41.17;94317.56;5080671;28;9084;-55
2023/04/16 07:20:29;;;;;;;;;;;;;;;26.24;41.78;94318.34;5084578;28;9389;-55
2023/04/16 07:23:02;;;;;;;;;;;;;;;26.26;41.78;94313.78;5066996;28;7002;-55
2023/04/16 07:25:33;;;;;;;;;;;;;;;26.26;41.41;94315.81;5085278;28;9022;-55
2023/04/16 07:28:27;;;;;;;;;;;;;;;26.25;41.88;94325.34;5066449;28;7093;-55
2023/04/16 07:30:53;;;;;;;;;;;;;;;26.24;41.74;94318.34;5038138;28;9075;-55
2023/04/16 07:33:20;;;;;;;;;;;;;;;26.21;41.18;94322.13;5028949;28;7348;-55
2023/04/16 07:35:55;;;;;;;;;;;;;;;26.20;41.85;94313.13;5029836;28;8944;-55
2023/04/16 07:38:33;;;;;;;;;;;;;;;26.25;41.88;94325.34;5035973;28;6961;-55
2023/04/16 07:41:01;;;;;;;;;;;;;;;26.23;41.36;94328.59;5030850;28;8850;-55
2023/04/16 07:43:40;;;;;;;;;;;;;;;26.25;42.09;94328.09;5036054;28;8764;-54
2023/04/16 07:46:21;;;;;;;;;;;;;;;26.27;41.38;94328.34;5011089;28;8788;-55
2023/04/16 07:49:06;;;;;;;;;;;;;;;26.25;41.02;94330.88;5024748;28;7218;-55
2023/04/16 07:51:32;;;;;;;;;;;;;;;26.23;41.42;94331.38;5029502;28;8574;-55
2023/04/16 07:54:09;;;;;;;;;;;;;;;26.22;41.63;94340.16;5035679;28;7028;-55
2023/04/16 07:56:35;;;;;;;;;;;;;;;26.23;42.31;94344.41;5030756;28;7270;-55
2023/04/16 07:59:17;;;;;;;;;;;;;;;26.26;42.03;94338.63;5027315;28;7261;-55
2023/04/16 08:01:56;;;;;;;;;;;;;;;26.29;41.92;94343.09;5030051;28;9100;-55
2023/04/16 08:04:23;;;;;;;;;;;;;;;26.29;41.72;94353.38;5032645;28;7034;-55
2023/04/16 08:06:50;;;;;;;;;;;;;;;26.28;41.87;94354.63;5034141;28;8949;-55
2023/04/16 08:09:27;;;;;;;;;;;;;;;26.29;42.07;94365.16;5065811;28;7227;-55
2023/04/16 08:11:55;;;;;;;;;;;;;;;26.26;42.33;94359.91;5061026;28;9102;-55
2023/04/16 08:14:35;;;;;;;;;;;;;;;26.24;41.90;94362.44;5067505;28;7214;-55
2023/04/16 08:17:01;;;;;;;;;;;;;;;26.25;42.37;94364.72;5074406;28;7216;-55
2023/04/16 08:19:32;;;;;;;;;;;;;;;26.27;42.81;94367.69;5075458;28;7246;-55
2023/04/16 08:22:01;;;;;;;;;;;;;;;26.27;41.94;94366.94;5094623;28;7447;-55
2023/04/16 08:24:57;;;;;;;;;;;;;;;26.28;42.01;94376.69;5071448;28;7214;-55
2023/04/16 08:27:25;;;;;;;;;;;;;;;26.25;42.74;94372.97;5033794;28;8845;-55
2023/04/16 08:29:51;;;;;;;;;;;;;;;26.32;42.29;94366.16;5040154;28;7170;-55
2023/04/16 08:32:27;;;;;;;;;;;;;;;26.35;42.54;94371.38;5047184;28;7263;-55
2023/04/16 08:34:56;;;;;;;;;;;;;;;26.32;42.37;94374.41;5044582;28;7137;-55
2023/04/16 08:37:34;;;;;;;;;;;;;;;26.32;42.57;94379.94;5019849;28;7265;-55
2023/04/16 08:40:10;;;;;;;;;;;;;;;26.31;42.21;94381.19;5029363;28;8240;-55
2023/04/16 08:42:44;;;;;;;;;;;;;;;26.31;42.10;94383.94;5023501;28;8879;-55
2023/04/16 08:45:19;;;;;;;;;;;;;;;26.32;42.35;94383.41;5034887;28;9477;-55
2023/04/16 08:47:52;;;;;;;;;;;;;;;26.34;42.14;94385.69;5050312;28;8749;-55
2023/04/16 08:50:25;;;;;;;;;;;;;;;26.39;42.17;94387.63;5043066;28;7122;-55
2023/04/16 08:52:57;;;;;;;;;;;;;;;26.41;42.24;94377.56;5046989;28;7106;-54
2023/04/16 08:55:35;;;;;;;;;;;;;;;26.46;42.21;94384.28;5034555;28;8672;-55
2023/04/16 08:58:28;;;;;;;;;;;;;;;26.48;41.90;94387.28;5023474;28;9555;-55
2023/04/16 09:00:55;;;;;;;;;;;;;;;26.48;41.90;94388.03;5043366;28;7260;-55
2023/04/16 09:03:23;;;;;;;;;;;;;;;26.47;41.74;94385.81;5058481;28;7344;-55
2023/04/16 09:05:54;;;;;;;;;;;;;;;26.52;41.46;94393.25;5088366;28;7600;-55
2023/04/16 09:11:00;;;;;;;;;;;;;;;26.57;41.51;94389.69;4985155;28;6957;-83
2023/04/16 09:13:27;;;;;;;;;;;;;;;26.48;41.89;94390.03;4995277;28;7275;-83
2023/04/16 09:15:56;;;;;;;;;;;;;;;26.54;41.19;94396.25;4995350;28;8986;-82
2023/04/16 09:18:26;;;;;;;;;;;;;;;26.52;41.62;94398.78;4977191;28;8852;-82
2023/04/16 09:21:09;;;;;;;;;;;;;;;26.46;41.74;94398.09;4972575;28;7127;-83
2023/04/16 09:23:43;;;;;;;;;;;;;;;26.44;41.72;94395.84;4998750;28;7225;-82
2023/04/16 09:26:10;;;;;;;;;;;;;;;26.35;41.83;94398.19;4982321;28;9340;-81
2023/04/16 09:28:45;;;;;;;;;;;;;;;26.38;42.03;94399.94;4975843;28;8685;-82
2023/04/16 09:31:15;;;;;;;;;;;;;;;26.36;42.03;94394.91;4975270;28;7247;-82
2023/04/16 09:34:06;;;;;;;;;;;;;;;26.36;42.13;94402.44;4977285;28;9224;-83
2023/04/16 09:36:35;;;;;;;;;;;;;;;26.35;42.19;94407.22;4961057;28;8999;-83
2023/04/16 09:39:22;;;;;;;;;;;;;;;26.31;41.82;94409.50;4977079;28;8693;-82
2023/04/16 09:41:55;;;;;;;;;;;;;;;26.30;42.54;94410.00;4995177;28;8712;-82
2023/04/16 09:44:34;;;;;;;;;;;;;;;26.34;42.10;94407.75;4986049;28;9107;-83
2023/04/16 09:47:15;;;;;;;;;;;;;;;26.32;42.04;94410.25;4976643;28;8848;-83
2023/04/16 09:49:43;;;;;;;;;;;;;;;26.32;42.24;94418.53;4989213;28;8974;-82
2023/04/16 09:52:16;;;;;;;;;;;;;;;26.36;41.97;94413.47;4976852;28;9373;-86
2023/04/16 09:54:52;;;;;;;;;;;;;;;26.30;42.96;94418.28;5006133;28;7034;-86
2023/04/16 09:57:21;;;;;;;;;;;;;;;26.31;42.63;94417.78;4977151;28;8700;-83
2023/04/16 09:59:56;;;;;;;;;;;;;;;26.28;42.45;94418.81;4976760;28;9071;-83
2023/04/16 10:02:40;;;;;;;;;;;;;;;26.28;43.18;94418.81;4982263;28;8738;-83
2023/04/16 10:05:08;;;;;;;;;;;;;;;26.27;43.56;94419.31;4977331;28;8995;-84
2023/04/16 10:07:38;;;;;;;;;;;;;;;26.29;43.44;94425.06;5003636;28;9349;-85
2023/04/16 10:10:07;;;;;;;;;;;;;;;26.26;44.14;94420.56;5013248;28;9009;-86
2023/04/16 10:12:43;;;;;;;;;;;;;;;26.27;44.64;94422.09;4995286;28;9259;-85
2023/04/16 10:15:19;;;;;;;;;;;;;;;26.23;44.96;94418.88;5002859;28;6856;-85
2023/04/16 10:17:49;;;;;;;;;;;;;;;26.24;44.98;94429.38;4993037;28;8765;-86
2023/04/16 10:20:30;;;;;;;;;;;;;;;26.25;44.85;94430.13;5009403;28;7255;-85
2023/04/16 10:22:59;;;;;;;;;;;;;;;26.27;44.73;94435.88;4986014;28;8756;-85
2023/04/16 10:25:30;;;;;;;;;;;;;;;26.31;44.11;94428.06;4996130;28;9357;-85
2023/04/16 10:27:58;;;;;;;;;;;;;;;26.31;44.51;94431.56;4992957;28;9501;-85
2023/04/16 10:30:38;;;;;;;;;;;;;;;26.30;44.52;94427.31;5006112;28;9096;-85
2023/04/16 10:33:38;;;;;;;;;;;;;;;26.33;44.26;94429.03;4992060;28;8786;-86
2023/04/16 10:36:12;;;;;;;;;;;;;;;26.32;44.56;94429.56;4911439;29;9006;-85
2023/04/16 10:38:46;;;;;;;;;;;;;;;26.31;44.36;94428.81;4900626;29;9052;-85
2023/04/16 10:41:26;;;;;;;;;;;;;;;26.32;44.27;94435.09;4916199;29;8752;-85
2023/04/16 10:44:04;;;;;;;;;;;;;;;26.29;44.66;94428.59;4903812;29;9094;-85
2023/04/16 10:46:36;;;;;;;;;;;;;;;26.29;44.22;94428.59;4904469;29;9015;-86
2023/04/16 10:49:17;;;;;;;;;;;;;;;26.30;44.56;94440.34;4906141;29;8678;-85
2023/04/16 10:51:52;;;;;;;;;;;;;;;26.28;44.24;94431.84;4895825;29;8676;-86
2023/04/16 10:54:37;;;;;;;;;;;;;;;26.28;44.13;94437.34;4908305;29;9346;-86
2023/04/16 10:57:08;;;;;;;;;;;;;;;26.26;44.57;94428.84;4945916;23;9078;-61
2023/04/16 10:59:48;;;;;;;;;;;;;;;26.28;44.09;94426.31;5027335;28;8841;-62
2023/04/16 11:02:28;;;;;;;;;;;;;;;26.28;44.09;94429.84;5022531;28;8726;-62
2023/04/16 11:04:56;;;;;;;;;;;;;;;26.27;44.75;94430.34;5032122;28;8782;-61
2023/04/16 11:07:34;;;;;;;;;;;;;;;26.32;43.82;94430.28;5030232;28;9228;-62
2023/04/16 11:10:17;;;;;;;;;;;;;;;26.31;44.27;94428.81;5011205;28;8706;-62
2023/04/16 11:12:55;;;;;;;;;;;;;;;26.35;43.39;94429.28;5026924;28;8706;-63
2023/04/16 11:15:35;;;;;;;;;;;;;;;26.37;43.56;94429.50;5024560;28;7416;-62
2023/04/16 11:18:08;;;;;;;;;;;;;;;26.44;43.54;94430.94;5019432;28;7045;-62
2023/04/16 11:20:40;;;;;;;;;;;;;;;26.44;42.89;94425.44;5009666;28;7338;-62
2023/04/16 11:23:11;;;;;;;;;;;;;;;26.40;43.51;94428.50;5022028;28;7146;-62
2023/04/16 11:25:37;;;;;;;;;;;;;;;26.37;43.69;94434.25;5004275;28;8475;-62
2023/04/16 11:28:06;;;;;;;;;;;;;;;26.32;43.41;94435.81;5020526;28;9425;-62
2023/04/16 11:30:36;;;;;;;;;;;;;;;26.31;43.44;94430.81;5022918;28;8753;-62
2023/04/16 11:33:11;;;;;;;;;;;;;;;26.31;43.71;94430.81;5020748;28;9676;-62
2023/04/16 11:35:40;;;;;;;;;;;;;;;26.29;44.31;94436.09;5025848;28;8727;-62
2023/04/16 11:38:32;;;;;;;;;;;;;;;26.30;43.71;94438.34;5032312;28;9020;-62
2023/04/16 11:40:57;;;;;;;;;;;;;;;26.36;43.12;94436.28;5027118;28;7050;-62
2023/04/16 11:43:25;;;;;;;;;;;;;;;26.39;43.34;94437.25;5028895;28;9174;-62
2023/04/16 11:46:02;;;;;;;;;;;;;;;26.38;43.87;94441.28;5008497;28;8962;-62
2023/04/16 11:48:58;;;;;;;;;;;;;;;26.36;43.24;94439.03;5028101;28;7040;-62
2023/04/16 11:51:41;;;;;;;;;;;;;;;26.36;43.12;94435.53;5028828;28;7127;-62
2023/04/16 11:54:26;;;;;;;;;;;;;;;26.36;43.32;94441.06;5023930;28;7223;-62
2023/04/16 11:57:03;;;;;;;;;;;;;;;26.36;43.26;94439.03;5027142;28;8957;-62
2023/04/16 12:00:18;;;;;;;;;;;;;;;26.40;43.66;94438.75;5034034;28;7182;-62
2023/04/16 12:03:28;;;;;;;;;;;;;;;26.41;43.03;94432.72;4929880;29;7026;-63
2023/04/16 12:06:08;;;;;;;;;;;;;;;26.47;43.14;94430.66;4875847;29;7361;-63
2023/04/16 12:08:45;;;;;;;;;;;;;;;26.50;42.95;94440.66;4864543;29;7243;-63
2023/04/16 12:11:45;;;;;;;;;;;;;;;26.47;43.23;94440.97;4867066;29;9431;-62
2023/04/16 12:14:15;;;;;;;;;;;;;;;26.45;42.99;94443.47;4865683;29;8872;-63
2023/04/16 12:17:19;;;;;;;;;;;;;;;26.43;43.66;94443.22;4877957;29;9074;-63
2023/04/16 12:19:59;;;;;;;;;;;;;;;26.42;43.56;94442.50;4818776;29;7168;-62
2023/04/16 12:23:00;;;;;;;;;;;;;;;26.41;43.13;94443.00;4822014;29;9196;-62
2023/04/16 12:25:45;;;;;;;;;;;;;;;26.41;43.27;94446.50;4754744;30;7498;-62
2023/04/16 12:28:11;;;;;;;;;;;;;;;26.39;43.41;94453.81;4769020;30;7860;-62
2023/04/16 12:30:51;;;;;;;;;;;;;;;26.40;42.97;94444.28;4769302;30;7144;-62
2023/04/16 12:33:27;;;;;;;;;;;;;;;26.40;43.68;94447.78;4773527;30;7033;-63
2023/04/16 12:36:26;;;;;;;;;;;;;;;26.40;43.59;94447.03;4765678;30;9213;-62
2023/04/16 12:39:22;;;;;;;;;;;;;;;26.40;43.69;94447.78;4733772;30;8340;-63
2023/04/16 12:42:08;;;;;;;;;;;;;;;26.40;43.04;94444.28;4723019;30;8725;-62
2023/04/16 12:45:25;;;;;;;;;;;;;;;26.37;43.01;94448.81;4759750;30;7056;-63
2023/04/16 12:48:09;;;;;;;;;;;;;;;26.36;43.05;94441.06;4709780;30;7689;-62
2023/04/16 12:50:39;;;;;;;;;;;;;;;26.41;42.96;94454.03;4703426;30;7769;-63
2023/04/16 12:53:07;;;;;;;;;;;;;;;26.42;43.35;94461.06;4695251;30;7496;-63
2023/04/16 12:56:03;;;;;;;;;;;;;;;26.44;42.41;94459.28;4747022;30;7260;-62
2023/04/16 12:58:29;;;;;;;;;;;;;;;26.47;42.63;94457.50;4747998;30;7434;-62
2023/04/16 13:00:55;;;;;;;;;;;;;;;26.42;43.07;94456.28;4776374;29;7671;-62
2023/04/16 13:03:50;;;;;;;;;;;;;;;26.45;43.13;94455.25;4823217;29;7263;-63
2023/04/16 13:06:16;;;;;;;;;;;;;;;26.52;42.46;94456.69;4742705;30;7751;-62
2023/04/16 13:09:19;;;;;;;;;;;;;;;26.49;43.35;94454.97;4767388;30;8443;-62
2023/04/16 13:11:55;;;;;;;;;;;;;;;26.50;43.19;94456.47;4738973;30;7907;-62
2023/04/16 13:14:29;;;;;;;;;;;;;;;26.54;43.06;94456.94;4726298;30;7761;-62
2023/04/16 13:17:06;;;;;;;;;;;;;;;26.56;42.99;94454.41;4726263;30;7491;-63
2023/04/16 13:19:47;;;;;;;;;;;;;;;26.55;42.95;94452.91;4818143;29;7556;-63
2023/04/16 13:22:54;;;;;;;;;;;;;;;26.55;42.96;94445.41;4848034;29;7582;-63
2023/04/16 13:25:20;;;;;;;;;;;;;;;26.57;42.63;94461.41;4838760;29;7271;-61
2023/04/16 13:27:49;;;;;;;;;;;;;;;26.57;42.44;94455.91;4861401;29;9110;-61
2023/04/16 13:30:32;;;;;;;;;;;;;;;26.57;43.04;94458.66;4862687;29;7225;-61
2023/04/16 13:33:12;;;;;;;;;;;;;;;26.58;43.01;94455.38;4846914;29;9637;-62
2023/04/16 13:35:42;;;;;;;;;;;;;;;26.58;42.61;94446.34;4877143;29;7077;-62
2023/04/16 13:38:18;;;;;;;;;;;;;;;26.60;42.41;94460.41;4875622;29;7239;-62
2023/04/16 13:40:46;;;;;;;;;;;;;;;26.58;42.16;94452.63;4891872;29;7378;-62
2023/04/16 13:43:43;;;;;;;;;;;;;;;26.58;42.56;94454.63;4938220;28;7480;-62
2023/04/16 13:46:13;;;;;;;;;;;;;;;26.56;42.51;94449.63;4927279;28;8761;-62
2023/04/16 13:48:49;;;;;;;;;;;;;;;26.54;42.69;94449.41;4945658;28;6868;-62